• Join FlightAware (Why Join?)
  • Login
  • US Flag 
Rudolph Flight #1: Arrived! 
02:01PM EST


 

Airport Tracker/Info


-or-


 

Live Flight TrackerFlight Track Log ✈ N1944E ✈ 21-Aug-2013 ✈ KJAC - KCOD

Flight Track Log - Related Links

Times and Time Zones

All times are in EDT time to prevent confusion due to time zone crossing. See the N1944E flight status page for this flight to view local times or setup timezone preferences in your user account.

Time Position Orientation Groundspeed Altitude Reporting Facility
EDT Latitude Longitude Course Direction KTS MPH feet Rate Location/Type
12:22AM 43.8485 -110.5345 29° Northeast  Level FlightAware Approximate
12:23AM 43.8420 -110.4691 100° East  Level FlightAware Approximate
12:23AM 43.6544 -110.7169 17° North 111 128 8,300  Level Salt Lake Center
12:24AM 43.8337 -110.4026 100° East  Level FlightAware Approximate
12:24AM 43.6833 -110.6936 30° Northeast 124 143 9,300  Level Salt Lake Center
12:25AM 43.8180 -110.3387 109° East  Level FlightAware Approximate
12:25AM 43.7072 -110.6597 46° Northeast 126 145 10,200  Level Salt Lake Center
12:26AM 43.8364 -110.2782 50° Northeast  Level FlightAware Approximate
12:26AM 43.7403 -110.6331 30° Northeast 137 158 11,300  Level Salt Lake Center
12:27AM 43.8676 -110.2263 50° Northeast  Level FlightAware Approximate
12:27AM 43.7831 -110.6047 26° Northeast 142 163 12,300  Level Salt Lake Center
12:28AM 43.8970 -110.1726 55° Northeast  Level FlightAware Approximate
12:28AM 43.8169 -110.5708 36° Northeast 153 176 13,300  Level Salt Lake Center
12:30AM 43.8564 -110.5397 30° Northeast 162 186 14,100 780 Climbing Salt Lake Center
12:31AM 43.8811 -110.4825 59° Northeast 169 194 15,000 840 Climbing Salt Lake Center
12:32AM 43.9061 -110.4253 59° Northeast 173 199 15,900 780 Climbing Salt Lake Center
12:33AM 43.9331 -110.3667 57° Northeast 180 207 16,700 540 Climbing Salt Lake Center
12:34AM 43.9575 -110.3019 62° Northeast 188 216 17,000 240 Climbing Salt Lake Center
12:35AM 43.9867 -110.2339 59° Northeast 202 232 17,300 -60 Climbing Salt Lake Center
12:36AM 44.0033 -110.1456 75° East 207 238 16,900 -120 Descending Salt Lake Center
12:37AM 44.0236 -110.0725 69° East 211 243 17,100  Climbing Salt Lake Center
12:38AM 44.0392 -109.9983 74° East 210 242 17,000 -60 Descending Salt Lake Center
12:39AM 44.0614 -109.9097 71° East 215 247 17,000  Level Salt Lake Center
12:40AM 44.0733 -109.8344 78° East 213 245 17,100 60 Climbing Salt Lake Center
12:41AM 44.0953 -109.7614 67° East 212 244 17,200 -60 Climbing Salt Lake Center
12:42AM 44.1217 -109.6761 67° East 213 245 17,000 -120 Descending Salt Lake Center
12:43AM 44.1353 -109.6028 75° East 210 242 17,000 -420 Level Salt Lake Center
12:44AM 44.1539 -109.5142 74° East 213 245 16,200 -780 Descending Salt Lake Center
12:45AM 44.1736 -109.4392 70° East 215 247 15,500 -600 Descending Salt Lake Center
12:46AM 44.1897 -109.3597 74° East 215 247 15,000 -300 Descending Salt Lake Center
12:47AM 44.2044 -109.2919 73° East 194 223 15,000  Level Salt Lake Center
12:48AM 44.2203 -109.2294 71° East 177 204 15,100  Climbing Salt Lake Center
12:49AM 44.2336 -109.1672 73° East 170 196 15,000 -60 Descending Salt Lake Center
12:50AM 44.2431 -109.1053 78° East 166 191 15,000  Level Salt Lake Center
12:51AM 44.2628 -109.0508 63° Northeast 159 183 15,000 -180 Level Salt Lake Center
12:52AM 44.2814 -108.9944 65° Northeast 161 185 14,700 -720 Descending Salt Lake Center
12:53AM 44.2928 -108.9064 80° East 182 209 13,600 -1,020 Descending Salt Lake Center
12:54AM 44.3072 -108.8281 76° East 196 226 12,700 -1,020 Descending Salt Lake Center
12:55AM 44.3233 -108.7519 73° East 202 232 11,600 -1,080 Descending Salt Lake Center
12:56AM 44.2953 -108.6861 121° Southeast 201 231 10,600 -1,080 Descending Salt Lake Center
12:57AM 44.2611 -108.7228 218° Southwest 199 229 9,500 -480 Descending Salt Lake Center
12:58AM 44.2986 -108.7661 320° Northwest 183 211 9,700 180 Climbing Salt Lake Center